createdAt,value
2022-08-01T00:01:29.992Z,2.33
2022-08-01T00:03:59.474Z,3.00
2022-08-01T00:06:27.505Z,2.57
2022-08-01T00:08:55.794Z,4.43
2022-08-01T00:11:23.855Z,2.63
2022-08-01T00:13:51.791Z,2.97
2022-08-01T00:16:20.022Z,3.40
2022-08-01T00:18:47.974Z,2.40
2022-08-01T00:21:17.277Z,5.33
2022-08-01T00:23:46.389Z,3.27
2022-08-01T00:26:14.769Z,4.10
2022-08-01T00:28:43.052Z,3.47
2022-08-01T00:31:10.966Z,2.80
2022-08-01T00:33:39.005Z,5.27
2022-08-01T00:36:09.027Z,4.67
2022-08-01T00:38:38.234Z,2.60
2022-08-01T00:41:06.068Z,3.13
2022-08-01T00:43:33.939Z,3.63
2022-08-01T00:46:01.857Z,4.60
2022-08-01T00:48:29.790Z,3.47
2022-08-01T00:50:58.585Z,2.83
2022-08-01T00:53:27.724Z,3.23
2022-08-01T00:56:18.352Z,5.30
2022-08-01T00:58:47.090Z,4.60
2022-08-01T01:01:18.659Z,3.60
2022-08-01T01:04:02.789Z,3.83
2022-08-01T01:06:42.893Z,3.47
2022-08-01T01:09:17.356Z,5.60
2022-08-01T01:11:50.662Z,3.07
2022-08-01T01:14:25.736Z,3.60
2022-08-01T01:16:55.079Z,3.03
2022-08-01T01:19:25.547Z,4.43
2022-08-01T01:22:08.518Z,3.23
2022-08-01T01:24:42.765Z,2.70
2022-08-01T01:27:18.332Z,2.30
2022-08-01T01:29:58.559Z,6.00
2022-08-01T01:32:34.431Z,2.83
2022-08-01T01:35:04.368Z,3.27
2022-08-01T01:37:35.194Z,2.80
2022-08-01T01:40:04.569Z,3.37
2022-08-01T01:42:32.723Z,3.20
2022-08-01T01:45:02.414Z,2.73
2022-08-01T01:47:31.080Z,5.83
2022-08-01T01:50:00.222Z,3.60
2022-08-01T01:52:28.412Z,3.47
2022-08-01T01:54:56.869Z,3.70
2022-08-01T02:12:14.527Z,3.97
2022-08-01T02:14:43.183Z,5.50
2022-08-01T02:17:12.948Z,4.47
2022-08-01T06:44:11.847Z,10.30
2022-08-01T06:46:39.828Z,13.30
2022-08-01T06:49:07.754Z,10.03
2022-08-01T06:51:35.825Z,11.60
2022-08-01T06:54:03.769Z,11.20
2022-08-01T06:56:32.217Z,13.30
2022-08-01T07:21:38.777Z,8.05
2022-08-01T07:24:02.852Z,7.63
2022-08-01T07:26:40.912Z,7.73
2022-08-01T07:29:20.952Z,9.57
2022-08-01T07:31:48.900Z,7.63
2022-08-01T07:34:16.673Z,8.50
2022-08-01T07:36:46.184Z,13.30
2022-08-01T07:39:14.258Z,12.30
2022-08-01T07:41:53.096Z,8.80
2022-08-01T07:44:30.284Z,10.47
2022-08-01T07:46:58.303Z,8.67
2022-08-01T07:49:26.372Z,9.33
2022-08-01T07:52:03.172Z,8.57
2022-08-01T07:54:33.065Z,10.20
2022-08-01T07:57:02.222Z,9.10
2022-08-01T07:59:30.124Z,7.07
2022-08-01T08:01:58.173Z,8.40
2022-08-01T08:04:26.307Z,11.03
2022-08-01T08:06:54.463Z,7.30
2022-08-01T08:09:23.909Z,8.57
2022-08-01T08:24:26.268Z,7.27
2022-08-01T08:36:50.367Z,8.80
2022-08-01T08:39:19.831Z,7.40
2022-08-01T08:41:49.367Z,7.40
2022-08-01T08:44:18.410Z,7.80
2022-08-01T08:46:47.630Z,6.07
2022-08-01T08:49:18.280Z,6.30
2022-08-01T08:51:49.132Z,8.47
2022-08-01T08:54:19.166Z,7.20
2022-08-01T08:56:47.615Z,5.73
2022-08-01T08:59:15.696Z,7.20
2022-08-01T09:21:28.469Z,7.77
2022-08-01T09:23:59.668Z,8.43
2022-08-01T09:26:31.806Z,7.23
2022-08-01T09:29:00.532Z,5.90
2022-08-01T09:31:38.420Z,8.20
2022-08-01T09:34:06.862Z,7.57
2022-08-01T09:36:52.178Z,10.50
2022-08-01T09:39:23.316Z,7.10
2022-08-01T09:41:51.355Z,7.23
2022-08-01T09:44:41.989Z,8.37
2022-08-01T09:47:10.555Z,6.47
2022-08-01T09:49:50.488Z,6.50
2022-08-01T09:52:26.008Z,7.90
2022-08-01T09:54:58.112Z,8.13
2022-08-01T09:57:29.919Z,9.90
2022-08-01T10:00:01.498Z,8.00
2022-08-01T10:02:41.213Z,6.80
2022-08-01T10:05:09.889Z,7.00
2022-08-01T10:07:57.855Z,7.90
2022-08-01T10:10:28.891Z,7.07
2022-08-01T10:12:58.091Z,13.63
2022-08-01T10:15:36.879Z,8.50
2022-08-01T10:33:08.698Z,7.80
2022-08-01T10:35:46.894Z,7.20
2022-08-01T10:38:17.870Z,5.20
2022-08-01T10:40:46.169Z,6.10
2022-08-01T10:43:15.256Z,5.53
2022-08-01T10:45:51.241Z,5.90
2022-08-01T10:48:22.843Z,7.07
2022-08-01T10:50:54.448Z,6.77
2022-08-01T10:53:31.861Z,7.30
2022-08-01T10:56:12.865Z,5.30
2022-08-01T10:58:45.335Z,9.13
2022-08-01T11:01:26.553Z,5.83
2022-08-01T11:04:06.981Z,5.83
2022-08-01T11:06:41.641Z,5.20
2022-08-01T11:09:22.090Z,5.37
2022-08-01T11:11:59.464Z,8.47
2022-08-01T11:14:53.593Z,5.97
2022-08-01T11:20:17.304Z,4.47
2022-08-01T11:23:05.973Z,6.70
2022-08-01T11:26:05.987Z,4.83
2022-08-01T11:28:47.056Z,6.50
2022-08-01T11:31:31.059Z,5.27
2022-08-01T11:34:08.038Z,8.33
2022-08-01T11:36:58.461Z,5.20
2022-08-01T11:39:25.700Z,4.73
2022-08-01T11:41:55.559Z,6.00
2022-08-01T11:44:30.251Z,5.73
2022-08-01T11:47:01.079Z,7.37
2022-08-01T11:49:36.296Z,7.70
2022-08-01T11:52:07.304Z,4.87
2022-08-01T11:54:37.298Z,5.17
2022-08-01T11:57:07.081Z,5.60
2022-08-01T11:59:41.442Z,4.00
2022-08-01T12:02:30.515Z,3.90
2022-08-01T12:05:00.840Z,4.83
2022-08-01T12:07:29.484Z,5.10
2022-08-01T12:10:02.838Z,3.90
2022-08-01T12:12:31.249Z,5.70
2022-08-01T12:15:01.382Z,5.10
2022-08-01T12:17:30.407Z,5.93
2022-08-01T12:19:59.380Z,5.20
2022-08-01T12:22:27.217Z,4.00
2022-08-01T12:24:55.279Z,4.20
2022-08-01T12:27:29.711Z,4.27
2022-08-01T12:29:57.856Z,3.73
2022-08-01T12:32:32.879Z,4.50
2022-08-01T12:35:05.120Z,5.20
2022-08-01T12:37:33.651Z,4.93
2022-08-01T12:40:01.573Z,5.20
2022-08-01T12:42:29.505Z,4.70
2022-08-01T12:44:57.601Z,5.43
2022-08-01T12:47:25.777Z,5.13
2022-08-01T12:49:55.121Z,4.30
2022-08-01T12:52:27.265Z,4.93
2022-08-01T12:55:02.219Z,4.13
2022-08-01T12:57:30.520Z,6.70
2022-08-01T13:00:22.466Z,5.63
2022-08-01T13:02:51.247Z,3.70
2022-08-01T13:05:20.652Z,4.23
2022-08-01T13:07:49.946Z,9.50
2022-08-01T13:10:26.616Z,4.50
2022-08-01T13:12:55.530Z,5.00
2022-08-01T13:15:25.465Z,5.97
2022-08-01T13:17:53.436Z,3.80
2022-08-01T13:20:30.290Z,4.27
2022-08-01T13:23:12.118Z,5.70
2022-08-01T13:25:51.209Z,4.67
2022-08-01T13:28:20.558Z,3.63
2022-08-01T13:30:55.421Z,3.90
2022-08-01T13:33:23.412Z,4.30
2022-08-01T13:35:54.879Z,3.80
2022-08-01T13:38:43.091Z,3.40
2022-08-01T13:41:11.524Z,3.80
2022-08-01T13:43:58.439Z,4.70
2022-08-01T13:46:37.519Z,5.07
2022-08-01T13:49:07.074Z,4.93
2022-08-01T13:51:46.905Z,3.73
2022-08-01T13:54:14.938Z,4.47
2022-08-01T13:56:43.089Z,4.50
2022-08-01T13:59:11.175Z,5.50
2022-08-01T14:01:39.336Z,4.03
2022-08-01T14:04:07.421Z,3.70
2022-08-01T14:06:36.043Z,8.10
2022-08-01T14:09:18.134Z,3.70
2022-08-01T14:11:52.132Z,6.13
2022-08-01T14:14:20.071Z,5.50
2022-08-01T14:16:49.138Z,3.60
2022-08-01T14:19:17.557Z,4.37
2022-08-01T14:21:47.223Z,3.60
2022-08-01T14:24:16.756Z,4.10
2022-08-01T14:26:45.114Z,3.50
2022-08-01T14:29:16.353Z,4.77
2022-08-01T14:31:45.080Z,4.23
2022-08-01T14:34:14.044Z,4.73
2022-08-01T14:36:43.749Z,4.63
2022-08-01T14:39:14.800Z,4.07
2022-08-01T14:41:44.363Z,8.67
2022-08-01T14:44:14.367Z,4.13
2022-08-01T14:46:57.967Z,4.27
2022-08-01T14:49:29.460Z,3.20
2022-08-01T14:51:58.744Z,3.03
2022-08-01T14:54:29.145Z,3.33
2022-08-01T14:56:59.383Z,3.80
2022-08-01T14:59:27.451Z,4.93
2022-08-01T15:01:55.324Z,3.03
2022-08-01T15:04:23.412Z,2.97
2022-08-01T15:06:51.293Z,3.00
2022-08-01T15:09:19.326Z,3.00
2022-08-01T15:11:48.138Z,3.20
2022-08-01T15:14:43.539Z,3.00
2022-08-01T15:17:11.766Z,3.30
2022-08-01T15:19:42.376Z,3.07
2022-08-01T15:22:16.177Z,3.60
2022-08-01T15:24:44.479Z,7.27
2022-08-01T15:27:12.403Z,3.47
2022-08-01T15:29:42.867Z,3.20
2022-08-01T15:32:10.963Z,2.63
2022-08-01T15:34:39.646Z,2.70
2022-08-01T15:37:08.134Z,3.13
2022-08-01T15:39:36.351Z,4.60
2022-08-01T15:42:05.557Z,2.80
2022-08-01T15:44:34.382Z,2.33
2022-08-01T15:47:04.702Z,3.57
2022-08-01T15:49:37.395Z,3.30
2022-08-01T15:52:06.251Z,3.47
2022-08-01T15:54:34.604Z,3.03
2022-08-01T15:57:02.533Z,2.90
2022-08-01T15:59:30.764Z,5.90
2022-08-01T16:01:59.209Z,2.80
2022-08-01T16:04:29.828Z,2.40
2022-08-01T16:06:58.476Z,3.20
2022-08-01T16:09:26.766Z,2.93
2022-08-01T16:11:54.837Z,6.03
2022-08-01T16:14:23.114Z,3.30
2022-08-01T16:16:51.140Z,3.00
2022-08-01T16:19:23.303Z,2.90
2022-08-01T16:21:53.791Z,3.07
2022-08-01T16:24:22.389Z,2.67
2022-08-01T16:26:52.425Z,3.33
2022-08-01T16:29:28.223Z,2.80
2022-08-01T16:32:18.260Z,4.10
2022-08-01T16:35:10.964Z,2.10
2022-08-01T16:38:01.282Z,2.60
2022-08-01T16:40:49.762Z,2.30
2022-08-01T16:43:18.562Z,3.77
2022-08-01T16:45:47.698Z,2.67
2022-08-01T16:48:18.531Z,2.90
2022-08-01T16:50:49.813Z,3.07
2022-08-01T16:53:21.130Z,3.37
2022-08-01T16:55:50.931Z,2.70
2022-08-01T16:58:19.707Z,3.37
2022-08-01T17:00:56.811Z,3.80
2022-08-01T17:03:51.322Z,2.90
2022-08-01T17:06:16.749Z,2.50
2022-08-01T17:08:47.212Z,2.57
2022-08-01T17:11:15.478Z,3.27
2022-08-01T17:13:43.864Z,5.13
2022-08-01T17:16:14.302Z,5.03
2022-08-01T17:18:42.185Z,3.47
2022-08-01T17:21:10.207Z,2.83
2022-08-01T17:23:40.395Z,2.63
2022-08-01T17:26:09.813Z,3.67
2022-08-01T17:28:37.736Z,3.30
2022-08-01T17:31:07.435Z,2.57
2022-08-01T17:33:45.803Z,2.90
2022-08-01T17:36:14.991Z,2.60
2022-08-01T17:38:42.964Z,5.30
2022-08-01T17:41:12.335Z,4.17
2022-08-01T17:43:40.335Z,2.80
2022-08-01T17:46:08.300Z,3.23
2022-08-01T17:48:36.373Z,7.27
2022-08-01T17:51:04.531Z,2.73
2022-08-01T17:53:32.754Z,3.47
2022-08-01T17:56:02.375Z,4.67
2022-08-01T17:58:49.549Z,4.30
2022-08-01T18:01:20.745Z,5.47
2022-08-01T18:03:49.325Z,2.50
2022-08-01T18:06:19.276Z,3.97
2022-08-01T18:08:47.956Z,3.90
2022-08-01T18:11:16.369Z,2.60
2022-08-01T18:13:46.101Z,2.80
2022-08-01T18:16:17.801Z,3.40
2022-08-01T18:18:45.705Z,2.80
2022-08-01T18:21:13.731Z,3.17
2022-08-01T18:23:51.076Z,3.30
2022-08-01T18:26:20.338Z,4.33
2022-08-01T18:28:50.507Z,3.33
2022-08-01T18:31:20.450Z,3.73
2022-08-01T18:33:48.666Z,5.63
2022-08-01T18:36:31.880Z,4.10
2022-08-01T18:39:04.270Z,2.90
2022-08-01T18:41:33.282Z,3.60
2022-08-01T18:44:05.852Z,3.33
2022-08-01T18:46:37.006Z,3.33
2022-08-01T18:49:06.003Z,2.97
2022-08-01T18:51:34.194Z,3.40
2022-08-01T18:54:02.838Z,3.33
2022-08-01T18:56:31.057Z,4.20
2022-08-01T18:58:58.954Z,2.60
2022-08-01T19:01:28.446Z,2.90
2022-08-01T19:03:56.562Z,3.00
2022-08-01T19:06:24.888Z,5.43
2022-08-01T19:08:55.686Z,6.30
2022-08-01T19:11:25.188Z,3.53
2022-08-01T19:13:53.271Z,4.13
2022-08-01T19:16:21.519Z,3.70
2022-08-01T19:18:50.866Z,3.77
2022-08-01T19:21:20.297Z,4.27
2022-08-01T19:24:05.761Z,3.90
2022-08-01T19:26:34.702Z,3.70
2022-08-01T19:29:04.658Z,3.37
2022-08-01T19:31:33.126Z,3.13
2022-08-01T19:34:04.303Z,5.80
2022-08-01T19:36:32.547Z,3.40
2022-08-01T19:39:01.756Z,3.70
2022-08-01T19:41:32.853Z,3.53
2022-08-01T19:44:02.230Z,4.50
2022-08-01T19:46:34.783Z,3.97
2022-08-01T19:49:05.238Z,4.93
2022-08-01T19:51:38.080Z,3.57
2022-08-01T19:54:07.260Z,3.90
2022-08-01T19:56:39.629Z,4.13
2022-08-01T19:59:09.011Z,4.60
2022-08-01T20:01:37.843Z,5.80
2022-08-01T20:04:07.447Z,3.80
2022-08-01T20:06:35.822Z,4.53
2022-08-01T20:09:05.082Z,4.17
2022-08-01T20:11:33.416Z,7.30
2022-08-01T20:14:02.095Z,5.20
2022-08-01T20:16:32.497Z,4.80
2022-08-01T20:19:00.818Z,3.57
2022-08-01T20:21:30.334Z,4.50
2022-08-01T20:24:02.569Z,6.23
2022-08-01T20:26:31.768Z,4.07
2022-08-01T20:29:01.682Z,3.73
2022-08-01T20:31:36.126Z,5.27
2022-08-01T20:34:15.653Z,4.57
2022-08-01T20:36:54.783Z,5.30
2022-08-01T20:39:26.639Z,4.33
2022-08-01T20:41:59.768Z,5.43
2022-08-01T20:44:31.698Z,5.93
2022-08-01T20:47:05.525Z,5.10
2022-08-01T20:49:37.339Z,4.67
2022-08-01T20:52:11.762Z,4.00
2022-08-01T20:54:41.017Z,3.90
2022-08-01T20:57:13.039Z,6.37
2022-08-01T20:59:55.516Z,5.47
2022-08-01T21:02:31.717Z,4.40
2022-08-01T21:05:04.534Z,7.90
2022-08-01T21:47:19.686Z,4.53
2022-08-01T21:49:48.143Z,5.83
2022-08-01T21:52:21.764Z,5.13
2022-08-01T21:54:59.996Z,4.47
2022-08-01T21:57:35.641Z,5.13
2022-08-01T22:00:08.712Z,5.57
2022-08-01T22:02:39.261Z,5.80
